sensor_id;sensor_type;location;lat;lon;timestamp;pressure;altitude;pressure_sealevel;temperature;humidity
49999;BME280;68071;45.062;7.356;2023-07-16T00:01:31;95187.41;;;20.52;100.00
49999;BME280;68071;45.062;7.356;2023-07-16T00:04:35;95186.66;;;20.51;100.00
49999;BME280;68071;45.062;7.356;2023-07-16T00:07:39;95194.47;;;20.38;100.00
49999;BME280;68071;45.062;7.356;2023-07-16T00:10:43;95204.13;;;20.46;100.00
49999;BME280;68071;45.062;7.356;2023-07-16T00:13:47;95189.66;;;20.38;100.00
49999;BME280;68071;45.062;7.356;2023-07-16T00:16:53;95189.59;;;20.48;100.00
49999;BME280;68071;45.062;7.356;2023-07-16T00:19:56;95177.81;;;20.34;100.00
49999;BME280;68071;45.062;7.356;2023-07-16T00:23:00;95183.78;;;20.70;100.00
49999;BME280;68071;45.062;7.356;2023-07-16T00:26:04;95180.94;;;20.79;100.00
49999;BME280;68071;45.062;7.356;2023-07-16T00:29:08;95177.81;;;20.77;100.00
49999;BME280;68071;45.062;7.356;2023-07-16T00:32:12;95177.47;;;20.75;100.00
49999;BME280;68071;45.062;7.356;2023-07-16T00:35:17;95171.81;;;20.94;100.00
49999;BME280;68071;45.062;7.356;2023-07-16T00:38:21;95176.97;;;20.95;100.00
49999;BME280;68071;45.062;7.356;2023-07-16T00:41:25;95174.50;;;20.88;100.00
49999;BME280;68071;45.062;7.356;2023-07-16T00:44:29;95172.00;;;21.14;100.00
49999;BME280;68071;45.062;7.356;2023-07-16T00:47:33;95171.13;;;21.08;100.00
49999;BME280;68071;45.062;7.356;2023-07-16T00:50:38;95168.94;;;20.79;100.00
49999;BME280;68071;45.062;7.356;2023-07-16T00:53:43;95163.81;;;20.68;100.00
49999;BME280;68071;45.062;7.356;2023-07-16T00:56:48;95157.97;;;20.47;100.00
49999;BME280;68071;45.062;7.356;2023-07-16T00:59:53;95147.34;;;20.51;100.00
49999;BME280;68071;45.062;7.356;2023-07-16T01:02:56;95156.72;;;20.48;100.00
49999;BME280;68071;45.062;7.356;2023-07-16T01:06:11;95159.59;;;20.63;100.00
49999;BME280;68071;45.062;7.356;2023-07-16T01:09:20;95161.31;;;20.70;100.00
49999;BME280;68071;45.062;7.356;2023-07-16T01:12:25;95153.03;;;20.76;100.00
49999;BME280;68071;45.062;7.356;2023-07-16T01:15:30;95155.97;;;20.72;100.00
49999;BME280;68071;45.062;7.356;2023-07-16T01:18:34;95147.84;;;20.83;100.00
49999;BME280;68071;45.062;7.356;2023-07-16T01:31:36;95141.72;;;21.09;100.00
49999;BME280;68071;45.062;7.356;2023-07-16T01:34:41;95136.53;;;20.93;100.00
49999;BME280;68071;45.062;7.356;2023-07-16T01:37:46;95126.63;;;20.73;100.00
49999;BME280;68071;45.062;7.356;2023-07-16T01:40:50;95129.44;;;20.73;100.00
49999;BME280;68071;45.062;7.356;2023-07-16T01:43:54;95131.44;;;20.82;100.00
49999;BME280;68071;45.062;7.356;2023-07-16T01:50:15;95119.00;;;20.74;100.00
49999;BME280;68071;45.062;7.356;2023-07-16T01:53:19;95131.03;;;20.65;100.00
49999;BME280;68071;45.062;7.356;2023-07-16T01:56:23;95125.25;;;20.68;100.00
49999;BME280;68071;45.062;7.356;2023-07-16T01:59:27;95125.00;;;20.57;100.00
49999;BME280;68071;45.062;7.356;2023-07-16T02:02:33;95120.69;;;20.71;100.00
49999;BME280;68071;45.062;7.356;2023-07-16T02:05:37;95121.13;;;20.88;100.00
49999;BME280;68071;45.062;7.356;2023-07-16T02:08:41;95115.44;;;20.97;100.00
49999;BME280;68071;45.062;7.356;2023-07-16T02:11:45;95129.38;;;21.16;100.00
49999;BME280;68071;45.062;7.356;2023-07-16T02:14:49;95126.59;;;21.31;100.00
49999;BME280;68071;45.062;7.356;2023-07-16T02:17:53;95120.22;;;21.06;100.00
49999;BME280;68071;45.062;7.356;2023-07-16T02:20:57;95112.06;;;20.84;100.00
49999;BME280;68071;45.062;7.356;2023-07-16T02:24:02;95119.94;;;20.80;100.00
49999;BME280;68071;45.062;7.356;2023-07-16T02:27:07;95118.44;;;20.60;100.00
49999;BME280;68071;45.062;7.356;2023-07-16T02:30:11;95115.91;;;20.96;100.00
49999;BME280;68071;45.062;7.356;2023-07-16T02:33:15;95112.25;;;20.80;100.00
49999;BME280;68071;45.062;7.356;2023-07-16T02:36:19;95117.25;;;20.85;100.00
49999;BME280;68071;45.062;7.356;2023-07-16T02:39:23;95121.25;;;20.60;100.00
49999;BME280;68071;45.062;7.356;2023-07-16T02:42:28;95117.41;;;20.48;100.00
49999;BME280;68071;45.062;7.356;2023-07-16T02:45:32;95115.53;;;20.45;100.00
49999;BME280;68071;45.062;7.356;2023-07-16T02:48:36;95111.13;;;20.53;100.00
49999;BME280;68071;45.062;7.356;2023-07-16T02:51:39;95117.84;;;20.56;100.00
49999;BME280;68071;45.062;7.356;2023-07-16T02:54:43;95107.97;;;20.61;100.00
49999;BME280;68071;45.062;7.356;2023-07-16T02:57:48;95115.03;;;20.56;100.00
49999;BME280;68071;45.062;7.356;2023-07-16T03:00:52;95108.50;;;20.50;100.00
49999;BME280;68071;45.062;7.356;2023-07-16T03:03:56;95105.47;;;20.63;100.00
49999;BME280;68071;45.062;7.356;2023-07-16T03:07:01;95108.59;;;20.65;100.00
49999;BME280;68071;45.062;7.356;2023-07-16T03:10:05;95107.66;;;20.59;100.00
49999;BME280;68071;45.062;7.356;2023-07-16T03:13:09;95108.63;;;20.55;100.00
49999;BME280;68071;45.062;7.356;2023-07-16T03:16:13;95109.50;;;20.37;100.00
49999;BME280;68071;45.062;7.356;2023-07-16T03:19:17;95117.47;;;20.30;100.00
49999;BME280;68071;45.062;7.356;2023-07-16T03:22:21;95112.94;;;20.32;100.00
49999;BME280;68071;45.062;7.356;2023-07-16T03:25:25;95116.31;;;20.46;100.00
49999;BME280;68071;45.062;7.356;2023-07-16T03:28:29;95114.22;;;20.55;100.00
49999;BME280;68071;45.062;7.356;2023-07-16T03:31:34;95107.63;;;20.68;100.00
49999;BME280;68071;45.062;7.356;2023-07-16T03:34:39;95110.59;;;20.64;100.00
49999;BME280;68071;45.062;7.356;2023-07-16T03:37:42;95113.34;;;20.49;100.00
49999;BME280;68071;45.062;7.356;2023-07-16T03:40:48;95118.28;;;20.54;100.00
49999;BME280;68071;45.062;7.356;2023-07-16T03:43:52;95127.91;;;20.29;100.00
49999;BME280;68071;45.062;7.356;2023-07-16T03:46:58;95126.84;;;20.27;100.00
49999;BME280;68071;45.062;7.356;2023-07-16T03:50:02;95128.41;;;20.18;100.00
49999;BME280;68071;45.062;7.356;2023-07-16T03:53:07;95131.69;;;20.60;100.00
49999;BME280;68071;45.062;7.356;2023-07-16T03:56:11;95129.31;;;20.77;100.00
49999;BME280;68071;45.062;7.356;2023-07-16T03:59:14;95129.22;;;20.52;100.00
49999;BME280;68071;45.062;7.356;2023-07-16T04:02:18;95134.75;;;20.71;100.00
49999;BME280;68071;45.062;7.356;2023-07-16T04:05:22;95127.72;;;20.42;100.00
49999;BME280;68071;45.062;7.356;2023-07-16T04:08:27;95133.31;;;21.09;100.00
49999;BME280;68071;45.062;7.356;2023-07-16T04:11:31;95133.41;;;20.91;100.00
49999;BME280;68071;45.062;7.356;2023-07-16T04:14:36;95138.31;;;20.38;100.00
49999;BME280;68071;45.062;7.356;2023-07-16T04:17:40;95137.25;;;20.35;100.00
49999;BME280;68071;45.062;7.356;2023-07-16T04:20:44;95152.53;;;20.77;100.00
49999;BME280;68071;45.062;7.356;2023-07-16T04:23:48;95156.25;;;20.83;100.00
49999;BME280;68071;45.062;7.356;2023-07-16T04:26:53;95149.28;;;20.79;100.00
49999;BME280;68071;45.062;7.356;2023-07-16T04:29:57;95145.59;;;20.54;100.00
49999;BME280;68071;45.062;7.356;2023-07-16T04:33:01;95151.09;;;20.48;100.00
49999;BME280;68071;45.062;7.356;2023-07-16T04:36:05;95159.69;;;20.88;100.00
49999;BME280;68071;45.062;7.356;2023-07-16T04:39:10;95163.31;;;20.69;100.00
49999;BME280;68071;45.062;7.356;2023-07-16T04:42:14;95168.94;;;20.27;100.00
49999;BME280;68071;45.062;7.356;2023-07-16T04:45:20;95149.47;;;20.23;100.00
49999;BME280;68071;45.062;7.356;2023-07-16T04:48:25;95148.09;;;20.09;100.00
49999;BME280;68071;45.062;7.356;2023-07-16T04:51:29;95150.25;;;20.14;100.00
49999;BME280;68071;45.062;7.356;2023-07-16T04:54:36;95156.59;;;20.33;100.00
49999;BME280;68071;45.062;7.356;2023-07-16T04:57:41;95158.09;;;20.53;100.00
49999;BME280;68071;45.062;7.356;2023-07-16T05:00:45;95163.31;;;20.69;100.00
49999;BME280;68071;45.062;7.356;2023-07-16T05:03:49;95161.16;;;20.64;100.00
49999;BME280;68071;45.062;7.356;2023-07-16T05:06:53;95161.56;;;20.72;100.00
49999;BME280;68071;45.062;7.356;2023-07-16T05:09:57;95159.78;;;20.60;100.00
49999;BME280;68071;45.062;7.356;2023-07-16T05:13:01;95163.44;;;20.42;100.00
49999;BME280;68071;45.062;7.356;2023-07-16T05:16:07;95159.81;;;20.50;100.00
49999;BME280;68071;45.062;7.356;2023-07-16T05:19:11;95165.25;;;20.54;100.00
49999;BME280;68071;45.062;7.356;2023-07-16T05:22:14;95166.19;;;20.60;100.00
49999;BME280;68071;45.062;7.356;2023-07-16T05:25:18;95169.69;;;20.79;100.00
49999;BME280;68071;45.062;7.356;2023-07-16T05:28:22;95171.88;;;21.09;100.00
49999;BME280;68071;45.062;7.356;2023-07-16T05:31:26;95175.28;;;21.37;100.00
49999;BME280;68071;45.062;7.356;2023-07-16T05:34:30;95170.81;;;21.30;100.00
49999;BME280;68071;45.062;7.356;2023-07-16T05:37:34;95168.06;;;21.45;100.00
49999;BME280;68071;45.062;7.356;2023-07-16T05:40:38;95166.34;;;21.39;100.00
49999;BME280;68071;45.062;7.356;2023-07-16T05:43:42;95177.94;;;21.65;100.00
49999;BME280;68071;45.062;7.356;2023-07-16T05:46:46;95175.22;;;21.86;100.00
49999;BME280;68071;45.062;7.356;2023-07-16T05:49:50;95177.88;;;22.19;100.00
49999;BME280;68071;45.062;7.356;2023-07-16T05:52:54;95173.50;;;22.78;100.00
49999;BME280;68071;45.062;7.356;2023-07-16T05:55:58;95171.97;;;22.62;100.00
49999;BME280;68071;45.062;7.356;2023-07-16T05:59:03;95179.44;;;22.65;100.00
49999;BME280;68071;45.062;7.356;2023-07-16T06:02:07;95186.72;;;22.72;100.00
49999;BME280;68071;45.062;7.356;2023-07-16T06:05:11;95181.63;;;22.91;100.00
49999;BME280;68071;45.062;7.356;2023-07-16T06:08:15;95177.59;;;23.13;100.00
49999;BME280;68071;45.062;7.356;2023-07-16T06:11:18;95192.22;;;23.32;100.00
49999;BME280;68071;45.062;7.356;2023-07-16T06:14:23;95194.06;;;23.77;100.00
49999;BME280;68071;45.062;7.356;2023-07-16T06:17:27;95197.09;;;23.73;100.00
49999;BME280;68071;45.062;7.356;2023-07-16T06:20:31;95193.75;;;23.75;100.00
49999;BME280;68071;45.062;7.356;2023-07-16T06:23:35;95188.88;;;23.75;100.00
49999;BME280;68071;45.062;7.356;2023-07-16T06:26:39;95198.66;;;23.53;100.00
49999;BME280;68071;45.062;7.356;2023-07-16T06:29:44;95190.94;;;23.54;100.00
49999;BME280;68071;45.062;7.356;2023-07-16T06:32:48;95197.56;;;23.71;100.00
49999;BME280;68071;45.062;7.356;2023-07-16T06:35:52;95196.38;;;23.57;100.00
49999;BME280;68071;45.062;7.356;2023-07-16T06:38:56;95191.59;;;23.64;100.00
49999;BME280;68071;45.062;7.356;2023-07-16T06:42:01;95196.50;;;24.10;100.00
49999;BME280;68071;45.062;7.356;2023-07-16T06:45:05;95202.69;;;24.14;100.00
49999;BME280;68071;45.062;7.356;2023-07-16T06:48:10;95209.00;;;23.83;100.00
49999;BME280;68071;45.062;7.356;2023-07-16T06:51:14;95208.28;;;23.88;98.57
49999;BME280;68071;45.062;7.356;2023-07-16T06:54:18;95207.66;;;24.25;94.47
49999;BME280;68071;45.062;7.356;2023-07-16T06:57:25;95211.94;;;24.41;98.63
49999;BME280;68071;45.062;7.356;2023-07-16T07:00:30;95210.53;;;24.31;97.97
49999;BME280;68071;45.062;7.356;2023-07-16T07:03:34;95214.44;;;24.92;92.59
49999;BME280;68071;45.062;7.356;2023-07-16T07:06:38;95218.28;;;25.27;93.87
49999;BME280;68071;45.062;7.356;2023-07-16T07:09:42;95203.53;;;25.11;94.81
49999;BME280;68071;45.062;7.356;2023-07-16T07:12:46;95209.69;;;25.53;90.17
49999;BME280;68071;45.062;7.356;2023-07-16T07:15:49;95220.00;;;25.50;94.59
49999;BME280;68071;45.062;7.356;2023-07-16T07:18:53;95218.38;;;25.44;96.88
49999;BME280;68071;45.062;7.356;2023-07-16T07:21:58;95220.81;;;25.25;95.80
49999;BME280;68071;45.062;7.356;2023-07-16T07:25:06;95228.84;;;24.94;96.63
49999;BME280;68071;45.062;7.356;2023-07-16T07:28:10;95232.63;;;24.85;97.54
49999;BME280;68071;45.062;7.356;2023-07-16T07:31:14;95241.25;;;24.70;95.36
49999;BME280;68071;45.062;7.356;2023-07-16T07:34:22;95245.25;;;24.90;97.47
49999;BME280;68071;45.062;7.356;2023-07-16T07:37:26;95246.38;;;24.98;93.23
49999;BME280;68071;45.062;7.356;2023-07-16T07:40:30;95256.50;;;25.16;94.50
49999;BME280;68071;45.062;7.356;2023-07-16T07:43:34;95258.00;;;24.74;95.42
49999;BME280;68071;45.062;7.356;2023-07-16T07:46:38;95243.53;;;24.98;97.78
49999;BME280;68071;45.062;7.356;2023-07-16T07:49:42;95249.84;;;25.19;93.08
49999;BME280;68071;45.062;7.356;2023-07-16T07:52:46;95241.56;;;25.48;94.63
49999;BME280;68071;45.062;7.356;2023-07-16T07:55:50;95243.69;;;25.21;89.87
49999;BME280;68071;45.062;7.356;2023-07-16T07:58:54;95244.59;;;25.38;89.82
49999;BME280;68071;45.062;7.356;2023-07-16T08:01:58;95248.88;;;25.28;86.95
49999;BME280;68071;45.062;7.356;2023-07-16T08:05:02;95259.06;;;25.46;86.49
49999;BME280;68071;45.062;7.356;2023-07-16T08:08:07;95245.47;;;25.50;88.40
49999;BME280;68071;45.062;7.356;2023-07-16T08:11:11;95237.81;;;25.68;87.21
49999;BME280;68071;45.062;7.356;2023-07-16T08:14:15;95240.50;;;25.89;86.07
49999;BME280;68071;45.062;7.356;2023-07-16T08:17:19;95254.88;;;25.85;88.02
49999;BME280;68071;45.062;7.356;2023-07-16T08:20:23;95251.56;;;25.92;86.54
49999;BME280;68071;45.062;7.356;2023-07-16T08:23:27;95256.56;;;26.15;83.97
49999;BME280;68071;45.062;7.356;2023-07-16T08:26:31;95255.34;;;26.50;86.37
49999;BME280;68071;45.062;7.356;2023-07-16T08:29:36;95260.00;;;26.47;87.02
49999;BME280;68071;45.062;7.356;2023-07-16T08:32:40;95264.66;;;26.62;86.05
49999;BME280;68071;45.062;7.356;2023-07-16T08:35:44;95261.59;;;26.65;82.60
49999;BME280;68071;45.062;7.356;2023-07-16T08:38:48;95266.16;;;26.40;83.29
49999;BME280;68071;45.062;7.356;2023-07-16T08:41:53;95263.31;;;26.28;84.90
49999;BME280;68071;45.062;7.356;2023-07-16T08:44:57;95257.34;;;25.60;84.34
49999;BME280;68071;45.062;7.356;2023-07-16T08:48:02;95266.06;;;24.87;86.67
49999;BME280;68071;45.062;7.356;2023-07-16T08:51:06;95276.56;;;24.81;87.27
49999;BME280;68071;45.062;7.356;2023-07-16T09:23:08;95258.47;;;27.60;66.41
49999;BME280;68071;45.062;7.356;2023-07-16T09:26:12;95267.91;;;27.91;72.25
49999;BME280;68071;45.062;7.356;2023-07-16T09:29:16;95260.28;;;27.40;70.87
49999;BME280;68071;45.062;7.356;2023-07-16T09:32:21;95269.34;;;26.99;74.78
49999;BME280;68071;45.062;7.356;2023-07-16T09:35:25;95264.69;;;26.96;77.03
49999;BME280;68071;45.062;7.356;2023-07-16T09:38:30;95272.44;;;27.46;73.33
49999;BME280;68071;45.062;7.356;2023-07-16T09:41:35;95273.72;;;27.28;69.96
49999;BME280;68071;45.062;7.356;2023-07-16T09:44:42;95278.38;;;27.14;71.13
49999;BME280;68071;45.062;7.356;2023-07-16T09:47:46;95267.81;;;27.03;70.58
49999;BME280;68071;45.062;7.356;2023-07-16T09:50:53;95266.78;;;26.95;70.79
49999;BME280;68071;45.062;7.356;2023-07-16T09:53:57;95271.41;;;27.10;77.22
49999;BME280;68071;45.062;7.356;2023-07-16T09:57:04;95278.91;;;27.07;75.31
49999;BME280;68071;45.062;7.356;2023-07-16T10:00:12;95269.03;;;26.68;72.76
49999;BME280;68071;45.062;7.356;2023-07-16T10:03:17;95265.44;;;26.73;73.17
49999;BME280;68071;45.062;7.356;2023-07-16T10:06:22;95276.31;;;26.86;74.85
49999;BME280;68071;45.062;7.356;2023-07-16T10:09:38;95269.34;;;27.05;75.55
49999;BME280;68071;45.062;7.356;2023-07-16T10:12:42;95271.41;;;26.81;77.15
49999;BME280;68071;45.062;7.356;2023-07-16T10:15:57;95272.47;;;27.12;72.17
49999;BME280;68071;45.062;7.356;2023-07-16T10:19:01;95262.75;;;26.24;75.03
49999;BME280;68071;45.062;7.356;2023-07-16T10:22:05;95270.13;;;26.88;75.53
49999;BME280;68071;45.062;7.356;2023-07-16T10:28:22;95271.94;;;27.02;71.63
49999;BME280;68071;45.062;7.356;2023-07-16T10:31:26;95263.63;;;27.44;71.20
49999;BME280;68071;45.062;7.356;2023-07-16T10:34:30;95267.03;;;27.03;69.06
49999;BME280;68071;45.062;7.356;2023-07-16T10:37:35;95267.81;;;27.09;71.31
49999;BME280;68071;45.062;7.356;2023-07-16T10:40:43;95264.19;;;27.48;72.03
49999;BME280;68071;45.062;7.356;2023-07-16T10:43:48;95254.88;;;27.54;72.18
49999;BME280;68071;45.062;7.356;2023-07-16T10:46:53;95263.53;;;27.96;66.05
49999;BME280;68071;45.062;7.356;2023-07-16T10:50:00;95256.41;;;27.43;62.77
49999;BME280;68071;45.062;7.356;2023-07-16T10:53:04;95257.94;;;27.61;65.86
49999;BME280;68071;45.062;7.356;2023-07-16T10:56:08;95257.41;;;27.80;66.20
49999;BME280;68071;45.062;7.356;2023-07-16T10:59:12;95256.13;;;27.70;63.82
49999;BME280;68071;45.062;7.356;2023-07-16T11:02:17;95255.88;;;27.62;73.48
49999;BME280;68071;45.062;7.356;2023-07-16T11:05:21;95256.41;;;27.66;69.96
49999;BME280;68071;45.062;7.356;2023-07-16T11:08:25;95242.97;;;27.44;69.36
49999;BME280;68071;45.062;7.356;2023-07-16T11:15:41;95253.06;;;27.39;68.14
49999;BME280;68071;45.062;7.356;2023-07-16T11:18:45;95248.56;;;27.89;72.27
49999;BME280;68071;45.062;7.356;2023-07-16T11:21:52;95248.00;;;28.02;68.89
49999;BME280;68071;45.062;7.356;2023-07-16T11:24:56;95244.56;;;27.39;67.25
49999;BME280;68071;45.062;7.356;2023-07-16T11:28:01;95238.88;;;27.56;67.36
49999;BME280;68071;45.062;7.356;2023-07-16T11:31:15;95238.84;;;27.62;67.69
49999;BME280;68071;45.062;7.356;2023-07-16T11:34:20;95236.69;;;27.91;65.30
49999;BME280;68071;45.062;7.356;2023-07-16T11:37:26;95248.50;;;28.06;61.04
49999;BME280;68071;45.062;7.356;2023-07-16T11:40:30;95243.47;;;28.83;65.10
49999;BME280;68071;45.062;7.356;2023-07-16T11:43:40;95242.69;;;29.13;64.05
49999;BME280;68071;45.062;7.356;2023-07-16T11:46:46;95243.69;;;28.43;66.77
49999;BME280;68071;45.062;7.356;2023-07-16T11:49:51;95243.59;;;28.07;68.15
49999;BME280;68071;45.062;7.356;2023-07-16T11:52:59;95234.63;;;27.91;67.50
49999;BME280;68071;45.062;7.356;2023-07-16T11:56:05;95227.25;;;28.25;66.01
49999;BME280;68071;45.062;7.356;2023-07-16T11:59:08;95235.19;;;27.78;68.82
49999;BME280;68071;45.062;7.356;2023-07-16T12:02:13;95237.97;;;27.96;71.16
49999;BME280;68071;45.062;7.356;2023-07-16T12:05:19;95235.97;;;27.73;67.85
49999;BME280;68071;45.062;7.356;2023-07-16T12:08:23;95233.59;;;27.83;67.16
49999;BME280;68071;45.062;7.356;2023-07-16T12:11:27;95241.94;;;27.64;72.94
49999;BME280;68071;45.062;7.356;2023-07-16T12:14:31;95238.06;;;27.67;71.64
49999;BME280;68071;45.062;7.356;2023-07-16T12:17:35;95234.16;;;27.76;66.35
49999;BME280;68071;45.062;7.356;2023-07-16T12:20:39;95237.59;;;27.57;71.09
49999;BME280;68071;45.062;7.356;2023-07-16T12:23:43;95233.72;;;27.43;65.56
49999;BME280;68071;45.062;7.356;2023-07-16T12:26:47;95237.16;;;28.06;69.71
49999;BME280;68071;45.062;7.356;2023-07-16T12:29:51;95232.88;;;28.36;69.03
49999;BME280;68071;45.062;7.356;2023-07-16T12:32:56;95226.53;;;28.96;69.12
49999;BME280;68071;45.062;7.356;2023-07-16T12:36:00;95228.16;;;29.72;66.31
49999;BME280;68071;45.062;7.356;2023-07-16T12:39:04;95234.25;;;29.57;64.41
49999;BME280;68071;45.062;7.356;2023-07-16T12:42:08;95224.66;;;29.29;64.33
49999;BME280;68071;45.062;7.356;2023-07-16T12:45:12;95223.59;;;28.72;65.67
49999;BME280;68071;45.062;7.356;2023-07-16T12:48:16;95233.59;;;28.42;66.02
49999;BME280;68071;45.062;7.356;2023-07-16T12:51:20;95220.28;;;28.26;67.99
49999;BME280;68071;45.062;7.356;2023-07-16T12:54:23;95222.53;;;28.38;68.54
49999;BME280;68071;45.062;7.356;2023-07-16T12:57:27;95226.56;;;28.49;68.16
49999;BME280;68071;45.062;7.356;2023-07-16T13:00:31;95216.97;;;28.16;68.26
49999;BME280;68071;45.062;7.356;2023-07-16T13:03:35;95224.56;;;28.38;68.87
49999;BME280;68071;45.062;7.356;2023-07-16T13:06:39;95226.88;;;27.86;70.13
49999;BME280;68071;45.062;7.356;2023-07-16T13:09:43;95214.78;;;28.33;67.73
49999;BME280;68071;45.062;7.356;2023-07-16T13:12:47;95220.34;;;28.56;68.73
49999;BME280;68071;45.062;7.356;2023-07-16T13:15:51;95221.94;;;27.98;67.40
49999;BME280;68071;45.062;7.356;2023-07-16T13:18:55;95218.41;;;27.75;69.94
49999;BME280;68071;45.062;7.356;2023-07-16T13:21:59;95216.97;;;28.16;69.89
49999;BME280;68071;45.062;7.356;2023-07-16T13:25:03;95223.31;;;28.33;66.63
49999;BME280;68071;45.062;7.356;2023-07-16T13:28:08;95208.22;;;28.50;68.34
49999;BME280;68071;45.062;7.356;2023-07-16T13:31:12;95214.06;;;28.27;66.58
49999;BME280;68071;45.062;7.356;2023-07-16T13:34:17;95209.63;;;28.74;69.97
49999;BME280;68071;45.062;7.356;2023-07-16T13:37:20;95211.00;;;28.61;68.71
49999;BME280;68071;45.062;7.356;2023-07-16T13:40:24;95211.97;;;27.80;77.48
49999;BME280;68071;45.062;7.356;2023-07-16T13:43:28;95212.47;;;27.78;74.14
49999;BME280;68071;45.062;7.356;2023-07-16T13:46:32;95220.59;;;28.11;75.55
49999;BME280;68071;45.062;7.356;2023-07-16T13:49:36;95213.13;;;28.07;78.86
49999;BME280;68071;45.062;7.356;2023-07-16T13:52:40;95206.38;;;28.58;70.76
49999;BME280;68071;45.062;7.356;2023-07-16T13:55:44;95205.75;;;29.07;73.72
49999;BME280;68071;45.062;7.356;2023-07-16T13:58:48;95199.03;;;29.29;72.12
49999;BME280;68071;45.062;7.356;2023-07-16T14:02:00;95192.91;;;29.94;65.14
49999;BME280;68071;45.062;7.356;2023-07-16T14:05:08;95205.97;;;28.43;74.48
49999;BME280;68071;45.062;7.356;2023-07-16T14:08:12;95197.97;;;28.72;72.22
49999;BME280;68071;45.062;7.356;2023-07-16T14:11:17;95199.63;;;28.61;71.85
49999;BME280;68071;45.062;7.356;2023-07-16T14:14:22;95186.13;;;28.67;71.19
49999;BME280;68071;45.062;7.356;2023-07-16T14:17:26;95185.38;;;28.67;76.90
49999;BME280;68071;45.062;7.356;2023-07-16T14:20:30;95183.00;;;28.71;71.83
49999;BME280;68071;45.062;7.356;2023-07-16T14:23:34;95194.31;;;27.93;79.41
49999;BME280;68071;45.062;7.356;2023-07-16T14:26:38;95190.50;;;27.85;76.25
49999;BME280;68071;45.062;7.356;2023-07-16T14:29:42;95195.94;;;27.83;82.58
49999;BME280;68071;45.062;7.356;2023-07-16T14:32:46;95189.88;;;28.03;78.97
49999;BME280;68071;45.062;7.356;2023-07-16T14:35:50;95197.88;;;28.11;78.10
49999;BME280;68071;45.062;7.356;2023-07-16T14:38:54;95198.28;;;28.32;82.88
49999;BME280;68071;45.062;7.356;2023-07-16T14:41:58;95193.44;;;28.57;73.23
49999;BME280;68071;45.062;7.356;2023-07-16T14:45:07;95198.13;;;28.55;71.29
49999;BME280;68071;45.062;7.356;2023-07-16T14:48:11;95202.38;;;28.73;72.75
49999;BME280;68071;45.062;7.356;2023-07-16T14:51:15;95186.66;;;29.27;69.09
49999;BME280;68071;45.062;7.356;2023-07-16T14:54:19;95185.91;;;28.96;74.13
49999;BME280;68071;45.062;7.356;2023-07-16T14:57:23;95196.69;;;29.34;69.09
49999;BME280;68071;45.062;7.356;2023-07-16T15:00:28;95200.41;;;29.72;68.84
49999;BME280;68071;45.062;7.356;2023-07-16T15:03:31;95199.91;;;29.49;70.80
49999;BME280;68071;45.062;7.356;2023-07-16T15:06:35;95186.06;;;29.59;74.80
49999;BME280;68071;45.062;7.356;2023-07-16T15:09:39;95184.94;;;30.31;67.77
49999;BME280;68071;45.062;7.356;2023-07-16T15:12:43;95199.09;;;30.88;62.05
49999;BME280;68071;45.062;7.356;2023-07-16T15:15:50;95203.31;;;30.49;66.17
49999;BME280;68071;45.062;7.356;2023-07-16T15:18:54;95206.19;;;30.11;68.00
49999;BME280;68071;45.062;7.356;2023-07-16T15:21:58;95202.19;;;30.90;66.18
49999;BME280;68071;45.062;7.356;2023-07-16T15:25:02;95192.44;;;30.99;65.58
49999;BME280;68071;45.062;7.356;2023-07-16T15:28:10;95204.63;;;31.46;63.83
49999;BME280;68071;45.062;7.356;2023-07-16T15:31:14;95198.94;;;31.86;60.66
49999;BME280;68071;45.062;7.356;2023-07-16T15:34:18;95194.41;;;30.91;65.53
49999;BME280;68071;45.062;7.356;2023-07-16T15:37:22;95193.81;;;30.79;61.81
49999;BME280;68071;45.062;7.356;2023-07-16T15:40:26;95197.41;;;30.28;68.83
49999;BME280;68071;45.062;7.356;2023-07-16T15:43:30;95202.78;;;30.31;64.49
49999;BME280;68071;45.062;7.356;2023-07-16T15:46:35;95204.66;;;30.29;65.36
49999;BME280;68071;45.062;7.356;2023-07-16T15:49:38;95201.50;;;30.13;68.16
49999;BME280;68071;45.062;7.356;2023-07-16T15:52:42;95192.38;;;29.52;69.58
49999;BME280;68071;45.062;7.356;2023-07-16T15:55:46;95198.50;;;29.37;70.13
49999;BME280;68071;45.062;7.356;2023-07-16T15:58:51;95201.34;;;29.37;68.89
49999;BME280;68071;45.062;7.356;2023-07-16T16:01:55;95194.47;;;29.21;70.95
49999;BME280;68071;45.062;7.356;2023-07-16T16:05:01;95197.97;;;28.77;75.45
49999;BME280;68071;45.062;7.356;2023-07-16T16:08:18;95197.34;;;28.90;78.61
49999;BME280;68071;45.062;7.356;2023-07-16T16:11:22;95190.91;;;29.14;73.21
49999;BME280;68071;45.062;7.356;2023-07-16T16:14:27;95188.16;;;29.58;70.39
49999;BME280;68071;45.062;7.356;2023-07-16T16:17:31;95185.19;;;29.45;69.92
49999;BME280;68071;45.062;7.356;2023-07-16T16:20:35;95183.03;;;29.26;76.78
49999;BME280;68071;45.062;7.356;2023-07-16T16:23:39;95177.63;;;29.23;74.76
49999;BME280;68071;45.062;7.356;2023-07-16T16:26:43;95176.97;;;29.41;76.25
49999;BME280;68071;45.062;7.356;2023-07-16T16:29:47;95177.53;;;29.59;72.77
49999;BME280;68071;45.062;7.356;2023-07-16T16:32:51;95190.22;;;29.58;71.83
49999;BME280;68071;45.062;7.356;2023-07-16T16:35:56;95189.59;;;28.07;85.28
49999;BME280;68071;45.062;7.356;2023-07-16T16:39:00;95185.78;;;27.11;89.49
49999;BME280;68071;45.062;7.356;2023-07-16T16:42:04;95195.03;;;27.29;91.17
49999;BME280;68071;45.062;7.356;2023-07-16T16:45:09;95191.72;;;27.08;98.73
49999;BME280;68071;45.062;7.356;2023-07-16T16:48:13;95191.50;;;26.83;98.44
49999;BME280;68071;45.062;7.356;2023-07-16T16:51:17;95193.78;;;26.79;100.00
49999;BME280;68071;45.062;7.356;2023-07-16T16:54:21;95184.00;;;26.91;99.47
49999;BME280;68071;45.062;7.356;2023-07-16T16:57:26;95182.69;;;26.69;97.70
49999;BME280;68071;45.062;7.356;2023-07-16T17:00:32;95198.84;;;27.43;97.29